sensor_id;sensor_type;location;lat;lon;timestamp;P1;durP1;ratioP1;P2;durP2;ratioP2
31730;SDS011;18310;55.586;12.286;2023-03-23T00:00:48;10.73;;;6.78;;
31730;SDS011;18310;55.586;12.286;2023-03-23T00:03:51;8.77;;;6.50;;
31730;SDS011;18310;55.586;12.286;2023-03-23T00:06:57;10.32;;;6.70;;
31730;SDS011;18310;55.586;12.286;2023-03-23T00:10:01;12.50;;;7.07;;
31730;SDS011;18310;55.586;12.286;2023-03-23T00:13:06;12.73;;;7.37;;
31730;SDS011;18310;55.586;12.286;2023-03-23T00:19:17;15.32;;;7.50;;
31730;SDS011;18310;55.586;12.286;2023-03-23T00:22:20;10.43;;;7.43;;
31730;SDS011;18310;55.586;12.286;2023-03-23T00:25:25;10.30;;;8.05;;
31730;SDS011;18310;55.586;12.286;2023-03-23T00:28:29;12.27;;;7.55;;
31730;SDS011;18310;55.586;12.286;2023-03-23T00:31:31;11.70;;;8.23;;
31730;SDS011;18310;55.586;12.286;2023-03-23T00:34:35;13.45;;;8.38;;
31730;SDS011;18310;55.586;12.286;2023-03-23T00:37:39;13.57;;;8.88;;
31730;SDS011;18310;55.586;12.286;2023-03-23T00:40:41;11.25;;;8.85;;
31730;SDS011;18310;55.586;12.286;2023-03-23T00:43:45;13.05;;;9.55;;
31730;SDS011;18310;55.586;12.286;2023-03-23T00:46:48;11.07;;;8.57;;
31730;SDS011;18310;55.586;12.286;2023-03-23T00:49:51;15.00;;;9.25;;
31730;SDS011;18310;55.586;12.286;2023-03-23T00:52:56;11.75;;;8.70;;
31730;SDS011;18310;55.586;12.286;2023-03-23T00:55:59;13.85;;;8.90;;
31730;SDS011;18310;55.586;12.286;2023-03-23T00:59:03;12.95;;;9.25;;
31730;SDS011;18310;55.586;12.286;2023-03-23T01:02:06;12.75;;;9.30;;
31730;SDS011;18310;55.586;12.286;2023-03-23T01:05:09;14.93;;;10.10;;
31730;SDS011;18310;55.586;12.286;2023-03-23T01:08:12;14.45;;;10.10;;
31730;SDS011;18310;55.586;12.286;2023-03-23T01:14:20;13.45;;;9.80;;
31730;SDS011;18310;55.586;12.286;2023-03-23T01:17:23;13.82;;;10.07;;
31730;SDS011;18310;55.586;12.286;2023-03-23T01:20:26;14.40;;;9.57;;
31730;SDS011;18310;55.586;12.286;2023-03-23T01:23:29;13.82;;;10.40;;
31730;SDS011;18310;55.586;12.286;2023-03-23T01:26:33;15.13;;;10.70;;
31730;SDS011;18310;55.586;12.286;2023-03-23T01:29:37;15.52;;;10.85;;
31730;SDS011;18310;55.586;12.286;2023-03-23T01:35:42;14.07;;;10.48;;
31730;SDS011;18310;55.586;12.286;2023-03-23T01:38:45;18.00;;;11.85;;
31730;SDS011;18310;55.586;12.286;2023-03-23T01:41:49;15.63;;;11.35;;
31730;SDS011;18310;55.586;12.286;2023-03-23T01:48:36;16.25;;;11.27;;
31730;SDS011;18310;55.586;12.286;2023-03-23T01:51:40;18.75;;;12.70;;
31730;SDS011;18310;55.586;12.286;2023-03-23T01:54:50;20.13;;;13.23;;
31730;SDS011;18310;55.586;12.286;2023-03-23T01:57:56;16.17;;;12.13;;
31730;SDS011;18310;55.586;12.286;2023-03-23T02:01:02;18.93;;;12.63;;
31730;SDS011;18310;55.586;12.286;2023-03-23T02:04:11;21.23;;;13.20;;
31730;SDS011;18310;55.586;12.286;2023-03-23T02:07:17;15.27;;;11.68;;
31730;SDS011;18310;55.586;12.286;2023-03-23T02:10:23;14.63;;;11.45;;
31730;SDS011;18310;55.586;12.286;2023-03-23T02:13:26;16.42;;;12.27;;
31730;SDS011;18310;55.586;12.286;2023-03-23T02:16:34;17.00;;;11.63;;
31730;SDS011;18310;55.586;12.286;2023-03-23T02:19:55;15.10;;;12.07;;
31730;SDS011;18310;55.586;12.286;2023-03-23T02:23:25;15.48;;;12.07;;
31730;SDS011;18310;55.586;12.286;2023-03-23T02:26:50;17.42;;;13.48;;
31730;SDS011;18310;55.586;12.286;2023-03-23T02:30:06;16.48;;;12.55;;
31730;SDS011;18310;55.586;12.286;2023-03-23T02:33:28;16.50;;;12.35;;
31730;SDS011;18310;55.586;12.286;2023-03-23T02:36:38;18.83;;;12.98;;
31730;SDS011;18310;55.586;12.286;2023-03-23T02:39:47;16.00;;;10.77;;
31730;SDS011;18310;55.586;12.286;2023-03-23T02:42:55;20.33;;;11.75;;
31730;SDS011;18310;55.586;12.286;2023-03-23T02:45:59;16.63;;;11.30;;
31730;SDS011;18310;55.586;12.286;2023-03-23T02:49:08;17.02;;;12.27;;
31730;SDS011;18310;55.586;12.286;2023-03-23T02:52:16;19.63;;;12.35;;
31730;SDS011;18310;55.586;12.286;2023-03-23T02:55:24;16.80;;;11.80;;
31730;SDS011;18310;55.586;12.286;2023-03-23T02:58:28;19.08;;;12.80;;
31730;SDS011;18310;55.586;12.286;2023-03-23T03:05:14;18.40;;;11.57;;
31730;SDS011;18310;55.586;12.286;2023-03-23T03:08:29;18.77;;;11.95;;
31730;SDS011;18310;55.586;12.286;2023-03-23T03:11:40;19.33;;;12.23;;
31730;SDS011;18310;55.586;12.286;2023-03-23T03:14:52;16.52;;;11.80;;
31730;SDS011;18310;55.586;12.286;2023-03-23T03:18:10;18.80;;;13.10;;
31730;SDS011;18310;55.586;12.286;2023-03-23T03:21:25;18.45;;;12.63;;
31730;SDS011;18310;55.586;12.286;2023-03-23T03:24:32;20.48;;;13.10;;
31730;SDS011;18310;55.586;12.286;2023-03-23T03:27:37;17.63;;;12.68;;
31730;SDS011;18310;55.586;12.286;2023-03-23T03:30:41;18.60;;;11.98;;
31730;SDS011;18310;55.586;12.286;2023-03-23T03:33:47;19.08;;;12.82;;
31730;SDS011;18310;55.586;12.286;2023-03-23T03:39:58;16.70;;;10.85;;
31730;SDS011;18310;55.586;12.286;2023-03-23T03:43:01;20.50;;;12.23;;
31730;SDS011;18310;55.586;12.286;2023-03-23T03:46:06;18.50;;;12.88;;
31730;SDS011;18310;55.586;12.286;2023-03-23T03:49:09;16.20;;;11.55;;
31730;SDS011;18310;55.586;12.286;2023-03-23T03:52:14;22.73;;;12.68;;
31730;SDS011;18310;55.586;12.286;2023-03-23T03:55:16;17.17;;;13.05;;
31730;SDS011;18310;55.586;12.286;2023-03-23T03:58:19;16.20;;;12.10;;
31730;SDS011;18310;55.586;12.286;2023-03-23T04:01:23;15.87;;;11.10;;
31730;SDS011;18310;55.586;12.286;2023-03-23T04:04:25;17.25;;;12.18;;
31730;SDS011;18310;55.586;12.286;2023-03-23T04:07:30;16.48;;;11.63;;
31730;SDS011;18310;55.586;12.286;2023-03-23T04:10:32;16.05;;;11.63;;
31730;SDS011;18310;55.586;12.286;2023-03-23T04:13:36;18.27;;;11.55;;
31730;SDS011;18310;55.586;12.286;2023-03-23T04:16:39;16.70;;;11.43;;
31730;SDS011;18310;55.586;12.286;2023-03-23T04:19:43;18.45;;;11.63;;
31730;SDS011;18310;55.586;12.286;2023-03-23T04:22:50;17.27;;;10.77;;
31730;SDS011;18310;55.586;12.286;2023-03-23T04:25:55;18.92;;;11.50;;
31730;SDS011;18310;55.586;12.286;2023-03-23T04:28:58;15.15;;;11.82;;
31730;SDS011;18310;55.586;12.286;2023-03-23T04:32:01;17.55;;;11.15;;
31730;SDS011;18310;55.586;12.286;2023-03-23T04:35:04;19.30;;;10.82;;
31730;SDS011;18310;55.586;12.286;2023-03-23T04:38:10;14.85;;;10.77;;
31730;SDS011;18310;55.586;12.286;2023-03-23T04:41:13;17.05;;;10.70;;
31730;SDS011;18310;55.586;12.286;2023-03-23T04:44:16;15.20;;;10.48;;
31730;SDS011;18310;55.586;12.286;2023-03-23T04:47:21;15.57;;;10.23;;
31730;SDS011;18310;55.586;12.286;2023-03-23T04:50:26;14.50;;;10.48;;
31730;SDS011;18310;55.586;12.286;2023-03-23T04:53:35;15.05;;;10.63;;
31730;SDS011;18310;55.586;12.286;2023-03-23T04:56:38;13.15;;;10.23;;
31730;SDS011;18310;55.586;12.286;2023-03-23T04:59:41;12.70;;;9.02;;
31730;SDS011;18310;55.586;12.286;2023-03-23T05:02:45;13.55;;;9.70;;
31730;SDS011;18310;55.586;12.286;2023-03-23T05:05:51;12.65;;;9.35;;
31730;SDS011;18310;55.586;12.286;2023-03-23T05:08:56;13.40;;;9.63;;
31730;SDS011;18310;55.586;12.286;2023-03-23T05:12:02;14.93;;;9.05;;
31730;SDS011;18310;55.586;12.286;2023-03-23T05:15:07;14.30;;;8.93;;
31730;SDS011;18310;55.586;12.286;2023-03-23T05:18:12;14.95;;;8.30;;
31730;SDS011;18310;55.586;12.286;2023-03-23T05:21:15;11.60;;;7.38;;
31730;SDS011;18310;55.586;12.286;2023-03-23T05:24:20;9.43;;;6.70;;
31730;SDS011;18310;55.586;12.286;2023-03-23T05:27:24;10.80;;;7.07;;
31730;SDS011;18310;55.586;12.286;2023-03-23T05:30:30;9.20;;;5.65;;
31730;SDS011;18310;55.586;12.286;2023-03-23T05:33:33;9.35;;;5.65;;
31730;SDS011;18310;55.586;12.286;2023-03-23T05:36:36;6.90;;;4.80;;
31730;SDS011;18310;55.586;12.286;2023-03-23T05:39:40;7.43;;;4.45;;
31730;SDS011;18310;55.586;12.286;2023-03-23T05:42:43;5.82;;;3.85;;
31730;SDS011;18310;55.586;12.286;2023-03-23T05:45:47;4.60;;;3.30;;
31730;SDS011;18310;55.586;12.286;2023-03-23T05:48:49;6.60;;;3.40;;
31730;SDS011;18310;55.586;12.286;2023-03-23T05:51:52;6.18;;;3.25;;
31730;SDS011;18310;55.586;12.286;2023-03-23T05:54:57;7.22;;;3.35;;
31730;SDS011;18310;55.586;12.286;2023-03-23T05:58:00;6.15;;;2.55;;
31730;SDS011;18310;55.586;12.286;2023-03-23T06:01:05;6.57;;;2.92;;
31730;SDS011;18310;55.586;12.286;2023-03-23T06:04:09;7.25;;;3.25;;
31730;SDS011;18310;55.586;12.286;2023-03-23T06:07:12;4.20;;;2.28;;
31730;SDS011;18310;55.586;12.286;2023-03-23T06:10:17;4.75;;;2.33;;
31730;SDS011;18310;55.586;12.286;2023-03-23T06:13:20;5.57;;;2.33;;
31730;SDS011;18310;55.586;12.286;2023-03-23T06:16:23;8.20;;;2.00;;
31730;SDS011;18310;55.586;12.286;2023-03-23T06:19:27;7.40;;;2.28;;
31730;SDS011;18310;55.586;12.286;2023-03-23T06:22:30;4.90;;;2.03;;
31730;SDS011;18310;55.586;12.286;2023-03-23T06:25:33;4.57;;;2.10;;
31730;SDS011;18310;55.586;12.286;2023-03-23T06:28:36;4.10;;;1.90;;
31730;SDS011;18310;55.586;12.286;2023-03-23T06:31:40;3.42;;;1.60;;
31730;SDS011;18310;55.586;12.286;2023-03-23T06:34:46;3.45;;;1.65;;
31730;SDS011;18310;55.586;12.286;2023-03-23T06:37:49;4.38;;;1.50;;
31730;SDS011;18310;55.586;12.286;2023-03-23T06:40:55;3.63;;;1.38;;
31730;SDS011;18310;55.586;12.286;2023-03-23T06:43:59;4.55;;;1.27;;
31730;SDS011;18310;55.586;12.286;2023-03-23T06:47:03;3.33;;;1.25;;
31730;SDS011;18310;55.586;12.286;2023-03-23T06:50:07;3.25;;;0.90;;
31730;SDS011;18310;55.586;12.286;2023-03-23T06:53:11;2.47;;;0.93;;
31730;SDS011;18310;55.586;12.286;2023-03-23T06:56:16;3.33;;;0.90;;
31730;SDS011;18310;55.586;12.286;2023-03-23T06:59:19;2.88;;;1.00;;
31730;SDS011;18310;55.586;12.286;2023-03-23T07:02:22;1.75;;;0.75;;
31730;SDS011;18310;55.586;12.286;2023-03-23T07:05:26;2.60;;;0.70;;
31730;SDS011;18310;55.586;12.286;2023-03-23T07:08:31;3.85;;;1.30;;
31730;SDS011;18310;55.586;12.286;2023-03-23T07:11:36;3.85;;;1.00;;
31730;SDS011;18310;55.586;12.286;2023-03-23T07:14:39;4.25;;;0.82;;
31730;SDS011;18310;55.586;12.286;2023-03-23T07:17:41;5.68;;;0.88;;
31730;SDS011;18310;55.586;12.286;2023-03-23T07:20:46;2.20;;;0.80;;
31730;SDS011;18310;55.586;12.286;2023-03-23T07:23:50;6.50;;;0.90;;
31730;SDS011;18310;55.586;12.286;2023-03-23T07:26:54;2.92;;;1.00;;
31730;SDS011;18310;55.586;12.286;2023-03-23T07:29:57;3.15;;;1.05;;
31730;SDS011;18310;55.586;12.286;2023-03-23T07:33:03;5.57;;;0.80;;
31730;SDS011;18310;55.586;12.286;2023-03-23T07:36:07;2.47;;;0.82;;
31730;SDS011;18310;55.586;12.286;2023-03-23T07:39:11;2.13;;;0.80;;
31730;SDS011;18310;55.586;12.286;2023-03-23T07:42:14;3.90;;;1.02;;
31730;SDS011;18310;55.586;12.286;2023-03-23T07:45:16;2.73;;;0.70;;
31730;SDS011;18310;55.586;12.286;2023-03-23T07:48:18;3.70;;;0.77;;
31730;SDS011;18310;55.586;12.286;2023-03-23T07:51:20;3.78;;;0.60;;
31730;SDS011;18310;55.586;12.286;2023-03-23T07:54:22;2.67;;;0.57;;
31730;SDS011;18310;55.586;12.286;2023-03-23T07:57:26;1.00;;;0.40;;
31730;SDS011;18310;55.586;12.286;2023-03-23T08:00:28;1.52;;;0.30;;
31730;SDS011;18310;55.586;12.286;2023-03-23T08:03:30;1.13;;;0.47;;
31730;SDS011;18310;55.586;12.286;2023-03-23T08:06:34;2.00;;;0.70;;
31730;SDS011;18310;55.586;12.286;2023-03-23T08:09:36;1.00;;;0.43;;
31730;SDS011;18310;55.586;12.286;2023-03-23T08:12:40;2.10;;;0.50;;
31730;SDS011;18310;55.586;12.286;2023-03-23T08:15:43;1.63;;;0.50;;
31730;SDS011;18310;55.586;12.286;2023-03-23T08:18:46;0.90;;;0.30;;
31730;SDS011;18310;55.586;12.286;2023-03-23T08:21:48;1.88;;;0.50;;
31730;SDS011;18310;55.586;12.286;2023-03-23T08:24:50;1.75;;;0.50;;
31730;SDS011;18310;55.586;12.286;2023-03-23T08:27:54;1.63;;;0.50;;
31730;SDS011;18310;55.586;12.286;2023-03-23T08:30:56;0.97;;;0.30;;
31730;SDS011;18310;55.586;12.286;2023-03-23T08:33:58;1.70;;;0.50;;
31730;SDS011;18310;55.586;12.286;2023-03-23T08:36:59;2.55;;;0.70;;
31730;SDS011;18310;55.586;12.286;2023-03-23T08:40:02;2.30;;;0.70;;
31730;SDS011;18310;55.586;12.286;2023-03-23T08:43:10;3.00;;;0.70;;
31730;SDS011;18310;55.586;12.286;2023-03-23T08:46:12;6.23;;;0.90;;
31730;SDS011;18310;55.586;12.286;2023-03-23T08:49:15;2.63;;;0.85;;
31730;SDS011;18310;55.586;12.286;2023-03-23T08:52:17;1.98;;;0.63;;
31730;SDS011;18310;55.586;12.286;2023-03-23T08:55:20;3.00;;;0.52;;
31730;SDS011;18310;55.586;12.286;2023-03-23T08:58:24;2.10;;;0.63;;
31730;SDS011;18310;55.586;12.286;2023-03-23T09:01:26;1.33;;;0.40;;
31730;SDS011;18310;55.586;12.286;2023-03-23T09:04:27;2.20;;;0.60;;
31730;SDS011;18310;55.586;12.286;2023-03-23T09:07:30;3.15;;;0.90;;
31730;SDS011;18310;55.586;12.286;2023-03-23T09:10:32;3.00;;;0.75;;
31730;SDS011;18310;55.586;12.286;2023-03-23T09:13:35;2.03;;;0.80;;
31730;SDS011;18310;55.586;12.286;2023-03-23T09:16:39;2.40;;;0.60;;
31730;SDS011;18310;55.586;12.286;2023-03-23T09:19:41;2.58;;;0.63;;
31730;SDS011;18310;55.586;12.286;2023-03-23T09:22:43;3.88;;;0.63;;
31730;SDS011;18310;55.586;12.286;2023-03-23T09:25:48;3.00;;;0.90;;
31730;SDS011;18310;55.586;12.286;2023-03-23T09:28:52;2.70;;;1.00;;
31730;SDS011;18310;55.586;12.286;2023-03-23T09:31:56;4.90;;;1.00;;
31730;SDS011;18310;55.586;12.286;2023-03-23T09:34:58;3.35;;;0.80;;
31730;SDS011;18310;55.586;12.286;2023-03-23T09:38:01;2.45;;;0.73;;
31730;SDS011;18310;55.586;12.286;2023-03-23T09:41:06;5.13;;;1.15;;
31730;SDS011;18310;55.586;12.286;2023-03-23T09:44:33;3.08;;;0.90;;
31730;SDS011;18310;55.586;12.286;2023-03-23T09:48:05;3.05;;;0.77;;
31730;SDS011;18310;55.586;12.286;2023-03-23T09:51:31;2.45;;;0.70;;
31730;SDS011;18310;55.586;12.286;2023-03-23T09:54:43;4.18;;;0.80;;
31730;SDS011;18310;55.586;12.286;2023-03-23T09:57:49;3.38;;;1.08;;
31730;SDS011;18310;55.586;12.286;2023-03-23T10:01:02;4.85;;;1.15;;
31730;SDS011;18310;55.586;12.286;2023-03-23T10:04:10;4.03;;;1.63;;
31730;SDS011;18310;55.586;12.286;2023-03-23T10:07:26;2.83;;;1.50;;
31730;SDS011;18310;55.586;12.286;2023-03-23T10:10:31;3.47;;;1.58;;
31730;SDS011;18310;55.586;12.286;2023-03-23T10:13:50;6.30;;;2.05;;
31730;SDS011;18310;55.586;12.286;2023-03-23T10:17:18;8.18;;;3.20;;
31730;SDS011;18310;55.586;12.286;2023-03-23T10:20:31;6.85;;;3.40;;
31730;SDS011;18310;55.586;12.286;2023-03-23T10:23:46;6.85;;;3.58;;
31730;SDS011;18310;55.586;12.286;2023-03-23T10:26:57;6.32;;;3.80;;
31730;SDS011;18310;55.586;12.286;2023-03-23T10:30:15;7.32;;;3.88;;
31730;SDS011;18310;55.586;12.286;2023-03-23T10:33:28;6.03;;;3.40;;
31730;SDS011;18310;55.586;12.286;2023-03-23T10:36:39;6.43;;;3.47;;
31730;SDS011;18310;55.586;12.286;2023-03-23T10:39:58;8.27;;;2.95;;
31730;SDS011;18310;55.586;12.286;2023-03-23T10:43:03;4.32;;;2.55;;
31730;SDS011;18310;55.586;12.286;2023-03-23T10:46:11;5.35;;;1.77;;
31730;SDS011;18310;55.586;12.286;2023-03-23T10:49:24;4.35;;;1.30;;
31730;SDS011;18310;55.586;12.286;2023-03-23T10:52:34;3.38;;;1.20;;
31730;SDS011;18310;55.586;12.286;2023-03-23T10:55:39;4.68;;;1.30;;
31730;SDS011;18310;55.586;12.286;2023-03-23T10:58:43;6.40;;;1.75;;
31730;SDS011;18310;55.586;12.286;2023-03-23T11:01:47;3.50;;;1.33;;
31730;SDS011;18310;55.586;12.286;2023-03-23T11:04:59;5.13;;;1.50;;
31730;SDS011;18310;55.586;12.286;2023-03-23T11:08:10;7.43;;;1.67;;
31730;SDS011;18310;55.586;12.286;2023-03-23T11:11:16;6.13;;;1.67;;
31730;SDS011;18310;55.586;12.286;2023-03-23T11:14:24;5.40;;;1.60;;
31730;SDS011;18310;55.586;12.286;2023-03-23T11:17:29;3.03;;;1.27;;
31730;SDS011;18310;55.586;12.286;2023-03-23T11:20:34;7.25;;;1.33;;
31730;SDS011;18310;55.586;12.286;2023-03-23T11:23:40;4.65;;;1.13;;
31730;SDS011;18310;55.586;12.286;2023-03-23T11:26:47;4.82;;;1.23;;
31730;SDS011;18310;55.586;12.286;2023-03-23T11:29:52;7.28;;;1.38;;
31730;SDS011;18310;55.586;12.286;2023-03-23T11:32:58;3.70;;;1.20;;
31730;SDS011;18310;55.586;12.286;2023-03-23T11:36:05;5.00;;;1.40;;
31730;SDS011;18310;55.586;12.286;2023-03-23T11:39:22;5.55;;;1.27;;
31730;SDS011;18310;55.586;12.286;2023-03-23T11:42:34;7.50;;;1.77;;
31730;SDS011;18310;55.586;12.286;2023-03-23T11:45:45;6.97;;;1.83;;
31730;SDS011;18310;55.586;12.286;2023-03-23T11:48:57;5.82;;;1.40;;
31730;SDS011;18310;55.586;12.286;2023-03-23T11:52:05;9.07;;;1.90;;
31730;SDS011;18310;55.586;12.286;2023-03-23T11:55:18;9.68;;;2.00;;
31730;SDS011;18310;55.586;12.286;2023-03-23T11:58:26;7.57;;;1.67;;
31730;SDS011;18310;55.586;12.286;2023-03-23T12:01:36;9.93;;;1.80;;
31730;SDS011;18310;55.586;12.286;2023-03-23T12:04:55;5.75;;;1.80;;
31730;SDS011;18310;55.586;12.286;2023-03-23T12:12:03;7.78;;;2.00;;
31730;SDS011;18310;55.586;12.286;2023-03-23T12:18:27;7.72;;;2.00;;
31730;SDS011;18310;55.586;12.286;2023-03-23T12:24:57;5.07;;;1.75;;
31730;SDS011;18310;55.586;12.286;2023-03-23T12:28:18;8.93;;;2.33;;
31730;SDS011;18310;55.586;12.286;2023-03-23T12:31:34;10.38;;;2.33;;
31730;SDS011;18310;55.586;12.286;2023-03-23T12:34:49;10.00;;;2.00;;
31730;SDS011;18310;55.586;12.286;2023-03-23T12:38:07;13.10;;;2.17;;
31730;SDS011;18310;55.586;12.286;2023-03-23T12:41:24;16.60;;;2.40;;
31730;SDS011;18310;55.586;12.286;2023-03-23T12:44:39;13.57;;;3.03;;
31730;SDS011;18310;55.586;12.286;2023-03-23T12:47:49;12.80;;;2.20;;
31730;SDS011;18310;55.586;12.286;2023-03-23T12:51:03;9.43;;;2.45;;
31730;SDS011;18310;55.586;12.286;2023-03-23T12:54:18;8.13;;;2.17;;
31730;SDS011;18310;55.586;12.286;2023-03-23T12:57:31;9.10;;;2.33;;
31730;SDS011;18310;55.586;12.286;2023-03-23T13:00:48;8.48;;;2.00;;
31730;SDS011;18310;55.586;12.286;2023-03-23T13:03:58;8.77;;;2.17;;
31730;SDS011;18310;55.586;12.286;2023-03-23T13:07:05;10.48;;;2.40;;
31730;SDS011;18310;55.586;12.286;2023-03-23T13:10:16;6.18;;;1.70;;
31730;SDS011;18310;55.586;12.286;2023-03-23T13:13:26;8.95;;;2.30;;
31730;SDS011;18310;55.586;12.286;2023-03-23T13:16:44;12.82;;;2.13;;
31730;SDS011;18310;55.586;12.286;2023-03-23T13:20:15;9.15;;;2.10;;
31730;SDS011;18310;55.586;12.286;2023-03-23T13:23:37;7.85;;;2.53;;
31730;SDS011;18310;55.586;12.286;2023-03-23T13:26:43;6.95;;;2.15;;
31730;SDS011;18310;55.586;12.286;2023-03-23T13:29:49;13.18;;;2.00;;
31730;SDS011;18310;55.586;12.286;2023-03-23T13:32:51;6.60;;;2.03;;
31730;SDS011;18310;55.586;12.286;2023-03-23T13:36:08;6.82;;;1.75;;
31730;SDS011;18310;55.586;12.286;2023-03-23T13:39:17;12.32;;;2.33;;
31730;SDS011;18310;55.586;12.286;2023-03-23T13:42:24;8.40;;;1.45;;
31730;SDS011;18310;55.586;12.286;2023-03-23T13:45:42;11.98;;;1.70;;
31730;SDS011;18310;55.586;12.286;2023-03-23T13:48:48;13.35;;;1.67;;
31730;SDS011;18310;55.586;12.286;2023-03-23T13:51:59;5.78;;;1.77;;
31730;SDS011;18310;55.586;12.286;2023-03-23T13:55:19;5.93;;;1.75;;
31730;SDS011;18310;55.586;12.286;2023-03-23T13:58:32;5.78;;;1.08;;
31730;SDS011;18310;55.586;12.286;2023-03-23T14:01:47;8.43;;;1.63;;
31730;SDS011;18310;55.586;12.286;2023-03-23T14:04:49;7.57;;;1.40;;
31730;SDS011;18310;55.586;12.286;2023-03-23T14:07:53;9.25;;;1.83;;
31730;SDS011;18310;55.586;12.286;2023-03-23T14:11:28;7.82;;;1.60;;
31730;SDS011;18310;55.586;12.286;2023-03-23T14:18:35;5.70;;;1.33;;
31730;SDS011;18310;55.586;12.286;2023-03-23T14:21:41;7.38;;;1.85;;
31730;SDS011;18310;55.586;12.286;2023-03-23T14:24:51;6.22;;;1.95;;
31730;SDS011;18310;55.586;12.286;2023-03-23T14:28:01;8.32;;;1.67;;
31730;SDS011;18310;55.586;12.286;2023-03-23T14:31:03;8.77;;;1.45;;
31730;SDS011;18310;55.586;12.286;2023-03-23T14:34:11;6.03;;;1.33;;
31730;SDS011;18310;55.586;12.286;2023-03-23T14:37:17;5.70;;;1.65;;
31730;SDS011;18310;55.586;12.286;2023-03-23T14:40:19;8.50;;;2.20;;
31730;SDS011;18310;55.586;12.286;2023-03-23T14:43:21;9.80;;;2.45;;
31730;SDS011;18310;55.586;12.286;2023-03-23T14:46:24;7.22;;;2.00;;
31730;SDS011;18310;55.586;12.286;2023-03-23T14:49:30;10.73;;;2.10;;
31730;SDS011;18310;55.586;12.286;2023-03-23T14:52:36;8.80;;;2.35;;
31730;SDS011;18310;55.586;12.286;2023-03-23T14:55:41;9.00;;;1.90;;
31730;SDS011;18310;55.586;12.286;2023-03-23T14:58:44;10.52;;;2.30;;
31730;SDS011;18310;55.586;12.286;2023-03-23T15:01:48;10.77;;;1.92;;
31730;SDS011;18310;55.586;12.286;2023-03-23T15:04:54;6.88;;;1.77;;
31730;SDS011;18310;55.586;12.286;2023-03-23T15:08:01;9.75;;;2.53;;
31730;SDS011;18310;55.586;12.286;2023-03-23T15:11:13;7.95;;;2.20;;
31730;SDS011;18310;55.586;12.286;2023-03-23T15:14:27;7.50;;;1.90;;
31730;SDS011;18310;55.586;12.286;2023-03-23T15:17:34;10.43;;;2.47;;
31730;SDS011;18310;55.586;12.286;2023-03-23T15:20:46;5.60;;;1.80;;
31730;SDS011;18310;55.586;12.286;2023-03-23T15:23:50;7.05;;;2.22;;
31730;SDS011;18310;55.586;12.286;2023-03-23T15:26:52;10.95;;;2.25;;
31730;SDS011;18310;55.586;12.286;2023-03-23T15:30:11;8.13;;;1.65;;
31730;SDS011;18310;55.586;12.286;2023-03-23T15:33:16;11.00;;;2.25;;
31730;SDS011;18310;55.586;12.286;2023-03-23T15:36:21;8.15;;;1.80;;
31730;SDS011;18310;55.586;12.286;2023-03-23T15:39:23;9.63;;;2.00;;
31730;SDS011;18310;55.586;12.286;2023-03-23T15:42:26;8.07;;;1.80;;
31730;SDS011;18310;55.586;12.286;2023-03-23T15:45:31;11.18;;;2.17;;
31730;SDS011;18310;55.586;12.286;2023-03-23T15:48:34;7.55;;;1.65;;
31730;SDS011;18310;55.586;12.286;2023-03-23T15:51:50;7.53;;;1.88;;
31730;SDS011;18310;55.586;12.286;2023-03-23T15:54:52;8.50;;;2.20;;
31730;SDS011;18310;55.586;12.286;2023-03-23T15:57:55;7.03;;;1.95;;
31730;SDS011;18310;55.586;12.286;2023-03-23T16:01:01;7.93;;;2.00;;
31730;SDS011;18310;55.586;12.286;2023-03-23T16:04:09;12.55;;;2.00;;
31730;SDS011;18310;55.586;12.286;2023-03-23T16:07:16;9.57;;;2.05;;
31730;SDS011;18310;55.586;12.286;2023-03-23T16:10:26;9.73;;;2.33;;
31730;SDS011;18310;55.586;12.286;2023-03-23T16:13:30;8.40;;;1.73;;
31730;SDS011;18310;55.586;12.286;2023-03-23T16:16:34;8.77;;;2.17;;
31730;SDS011;18310;55.586;12.286;2023-03-23T16:19:40;11.40;;;2.53;;
31730;SDS011;18310;55.586;12.286;2023-03-23T16:22:44;7.63;;;2.75;;
31730;SDS011;18310;55.586;12.286;2023-03-23T16:25:48;7.85;;;1.88;;
31730;SDS011;18310;55.586;12.286;2023-03-23T16:28:51;15.35;;;2.10;;
31730;SDS011;18310;55.586;12.286;2023-03-23T16:32:10;9.63;;;1.92;;
31730;SDS011;18310;55.586;12.286;2023-03-23T16:35:13;8.55;;;1.60;;
31730;SDS011;18310;55.586;12.286;2023-03-23T16:38:18;12.68;;;2.20;;
31730;SDS011;18310;55.586;12.286;2023-03-23T16:41:22;8.43;;;1.85;;
31730;SDS011;18310;55.586;12.286;2023-03-23T16:44:25;7.55;;;2.17;;
31730;SDS011;18310;55.586;12.286;2023-03-23T16:47:27;5.88;;;1.83;;
31730;SDS011;18310;55.586;12.286;2023-03-23T16:50:31;6.03;;;1.60;;
31730;SDS011;18310;55.586;12.286;2023-03-23T16:53:36;5.50;;;1.67;;
31730;SDS011;18310;55.586;12.286;2023-03-23T16:56:39;7.70;;;1.77;;
31730;SDS011;18310;55.586;12.286;2023-03-23T16:59:46;7.07;;;1.80;;
31730;SDS011;18310;55.586;12.286;2023-03-23T17:02:50;7.72;;;1.67;;
31730;SDS011;18310;55.586;12.286;2023-03-23T17:05:58;8.32;;;2.33;;
31730;SDS011;18310;55.586;12.286;2023-03-23T17:09:03;8.48;;;1.60;;
31730;SDS011;18310;55.586;12.286;2023-03-23T17:12:07;8.77;;;1.80;;
31730;SDS011;18310;55.586;12.286;2023-03-23T17:15:10;12.03;;;2.30;;
31730;SDS011;18310;55.586;12.286;2023-03-23T17:18:14;5.80;;;1.27;;
31730;SDS011;18310;55.586;12.286;2023-03-23T17:21:17;6.88;;;1.55;;
31730;SDS011;18310;55.586;12.286;2023-03-23T17:24:22;10.35;;;2.05;;
31730;SDS011;18310;55.586;12.286;2023-03-23T17:27:24;7.72;;;1.75;;
31730;SDS011;18310;55.586;12.286;2023-03-23T17:30:28;12.60;;;1.83;;
31730;SDS011;18310;55.586;12.286;2023-03-23T17:33:31;7.82;;;2.08;;
31730;SDS011;18310;55.586;12.286;2023-03-23T17:36:33;7.72;;;1.70;;
31730;SDS011;18310;55.586;12.286;2023-03-23T17:39:38;10.60;;;2.00;;
31730;SDS011;18310;55.586;12.286;2023-03-23T17:42:43;8.57;;;2.08;;
31730;SDS011;18310;55.586;12.286;2023-03-23T17:45:46;7.03;;;2.20;;
31730;SDS011;18310;55.586;12.286;2023-03-23T17:48:49;6.40;;;1.60;;
31730;SDS011;18310;55.586;12.286;2023-03-23T17:51:52;9.57;;;2.33;;
31730;SDS011;18310;55.586;12.286;2023-03-23T17:54:57;12.57;;;2.13;;
31730;SDS011;18310;55.586;12.286;2023-03-23T18:01:03;10.10;;;1.70;;
31730;SDS011;18310;55.586;12.286;2023-03-23T18:04:06;9.07;;;2.00;;
31730;SDS011;18310;55.586;12.286;2023-03-23T18:07:09;9.80;;;2.38;;
31730;SDS011;18310;55.586;12.286;2023-03-23T18:10:14;12.30;;;2.20;;
31730;SDS011;18310;55.586;12.286;2023-03-23T18:13:17;12.55;;;2.20;;
31730;SDS011;18310;55.586;12.286;2023-03-23T18:16:20;15.02;;;2.50;;
31730;SDS011;18310;55.586;12.286;2023-03-23T18:19:23;10.55;;;2.28;;
31730;SDS011;18310;55.586;12.286;2023-03-23T18:22:26;10.50;;;2.17;;
31730;SDS011;18310;55.586;12.286;2023-03-23T18:25:30;12.70;;;2.05;;
31730;SDS011;18310;55.586;12.286;2023-03-23T18:28:33;10.43;;;2.75;;
31730;SDS011;18310;55.586;12.286;2023-03-23T18:31:37;7.10;;;1.97;;
31730;SDS011;18310;55.586;12.286;2023-03-23T18:34:40;15.68;;;2.58;;
31730;SDS011;18310;55.586;12.286;2023-03-23T18:37:43;9.53;;;2.33;;
31730;SDS011;18310;55.586;12.286;2023-03-23T18:40:49;11.50;;;2.20;;
31730;SDS011;18310;55.586;12.286;2023-03-23T18:43:52;10.38;;;2.50;;
31730;SDS011;18310;55.586;12.286;2023-03-23T18:46:58;11.43;;;2.80;;
31730;SDS011;18310;55.586;12.286;2023-03-23T18:50:01;7.73;;;2.80;;
31730;SDS011;18310;55.586;12.286;2023-03-23T18:53:04;10.27;;;3.07;;